Time;durP1;ratioP1;P1;durP2;ratioP2;P2;SDS_P1;SDS_P2;PMS_P1;PMS_P2;Temp;Humidity;BMP_temperature;BMP_pressure;BME280_temperature;BME280_humidity;BME280_pressure;Samples;Min_cycle;Max_cycle;Signal;HPM_P1;HPM_P2
2022/08/04 00:00:00;;;;;;;5.10;3.60;;;;;;;19.64;60.46;93877.13;5009731;28;20045;-64
2022/08/04 00:02:47;;;;;;;5.50;3.90;;;;;;;19.64;60.64;93879.13;5015716;28;20049;-62
2022/08/04 00:05:42;;;;;;;5.18;3.47;;;;;;;19.56;60.45;93876.72;4998013;28;20403;-62
2022/08/04 00:08:20;;;;;;;9.63;3.50;;;;;;;19.55;60.49;93875.16;5009260;28;20871;-62
2022/08/04 00:10:51;;;;;;;5.82;3.70;;;;;;;19.53;60.58;93876.88;5003452;28;20439;-62
2022/08/04 00:13:22;;;;;;;6.25;3.60;;;;;;;19.50;60.80;93869.50;5007130;28;20041;-66
2022/08/04 00:15:56;;;;;;;4.77;3.23;;;;;;;19.42;61.37;93880.22;5009883;28;20487;-67
2022/08/04 00:18:32;;;;;;;5.60;3.40;;;;;;;19.34;61.85;93871.44;5009528;28;20060;-62
2022/08/04 00:21:05;;;;;;;4.90;3.42;;;;;;;19.24;61.59;93877.56;5009781;28;20398;-62
2022/08/04 00:23:34;;;;;;;5.50;3.40;;;;;;;19.23;61.79;93876.78;5009601;28;20399;-62
2022/08/04 00:26:21;;;;;;;5.28;3.60;;;;;;;19.17;62.23;93873.09;5008637;28;20050;-65
2022/08/04 00:28:52;;;;;;;11.77;8.20;;;;;;;19.14;61.82;93871.28;5028886;28;20065;-63
2022/08/04 00:31:19;;;;;;;9.70;6.43;;;;;;;19.13;62.06;93875.28;5013692;28;20053;-63
2022/08/04 00:34:06;;;;;;;6.35;4.30;;;;;;;19.10;61.80;93879.78;5017005;28;20051;-63
2022/08/04 00:36:33;;;;;;;6.50;3.67;;;;;;;19.09;61.68;93886.56;5013348;28;20049;-64
2022/08/04 00:39:01;;;;;;;4.88;3.15;;;;;;;19.07;62.32;93885.53;5013292;28;20046;-66
2022/08/04 00:41:38;;;;;;;5.17;3.03;;;;;;;19.01;61.97;93879.81;5013121;28;20077;-63
2022/08/04 00:44:45;;;;;;;4.38;3.20;;;;;;;19.01;62.12;93885.38;5012499;28;20072;-63
2022/08/04 00:47:34;;;;;;;4.93;3.20;;;;;;;18.99;62.28;93884.31;5012664;28;20616;-63
2022/08/04 00:50:08;;;;;;;4.60;3.22;;;;;;;18.93;62.53;93884.19;5012862;28;20407;-65
2022/08/04 00:52:44;;;;;;;6.28;3.42;;;;;;;18.83;62.97;93889.03;5005426;28;20050;-63
2022/08/04 00:55:10;;;;;;;5.47;3.30;;;;;;;18.80;63.19;93884.41;5006941;28;20189;-62
2022/08/04 00:57:58;;;;;;;6.65;3.50;;;;;;;18.77;63.37;93880.53;5012956;28;20040;-62
2022/08/04 01:00:25;;;;;;;6.72;3.30;;;;;;;18.78;62.80;93872.97;5011989;28;20272;-62
2022/08/04 01:03:10;;;;;;;7.05;4.93;;;;;;;18.75;63.33;93877.47;5050275;28;20049;-66
2022/08/04 01:05:56;;;;;;;9.73;4.30;;;;;;;18.70;63.40;93880.09;5012837;28;20533;-70
2022/08/04 01:08:46;;;;;;;5.10;3.60;;;;;;;18.60;63.92;93882.16;5012260;28;21457;-71
2022/08/04 01:11:52;;;;;;;7.28;3.50;;;;;;;18.44;64.32;93883.28;5010949;28;20752;-65
2022/08/04 01:14:47;;;;;;;5.35;3.40;;;;;;;18.49;64.31;93873.53;5003034;28;20058;-65
2022/08/04 01:17:23;;;;;;;6.45;3.40;;;;;;;18.42;64.77;93885.75;5011965;28;20769;-63
2022/08/04 01:20:07;;;;;;;7.75;3.40;;;;;;;18.23;65.86;93878.69;5011988;28;20060;-65
2022/08/04 01:22:42;;;;;;;5.00;3.50;;;;;;;18.17;65.71;93881.34;5012426;28;20061;-61
2022/08/04 01:25:34;;;;;;;6.15;3.97;;;;;;;18.19;66.05;93878.09;5011804;28;20398;-62
2022/08/04 01:28:28;;;;;;;5.65;3.83;;;;;;;18.13;65.71;93875.94;5011713;28;20229;-62
2022/08/04 01:31:06;;;;;;;5.85;3.70;;;;;;;18.08;66.02;93878.56;5002203;28;20060;-62
2022/08/04 01:33:41;;;;;;;5.05;3.83;;;;;;;18.13;66.12;93873.16;5012789;28;20053;-60
2022/08/04 01:36:32;;;;;;;5.30;3.73;;;;;;;18.12;65.80;93873.63;5012397;28;20049;-61
2022/08/04 01:39:39;;;;;;;7.00;3.70;;;;;;;18.10;65.79;93873.31;5011961;28;20417;-62
2022/08/04 01:41:48;;;;;;;5.38;3.80;;;;;;;18.05;66.06;93871.16;5011097;28;20050;-63
2022/08/04 01:44:28;;;;;;;6.05;3.47;;;;;;;18.04;65.95;93870.41;5012446;28;20072;-65
2022/08/04 01:46:55;;;;;;;4.95;3.50;;;;;;;18.03;65.80;93871.66;5012073;28;20045;-66
2022/08/04 01:49:29;;;;;;;4.37;3.20;;;;;;;18.02;65.71;93863.78;5012325;28;20501;-61
2022/08/04 01:52:09;;;;;;;4.97;3.47;;;;;;;18.04;65.40;93864.09;5011433;28;20258;-61
2022/08/04 01:54:41;;;;;;;5.53;3.67;;;;;;;18.04;65.71;93861.31;5011924;28;20089;-61
2022/08/04 01:57:11;;;;;;;5.53;3.50;;;;;;;18.02;65.52;93861.00;5011314;28;20462;-63
2022/08/04 01:59:59;;;;;;;117.65;75.70;;;;;;;17.98;65.96;93865.94;5011584;28;20057;-61
2022/08/04 02:02:26;;;;;;;35.43;22.17;;;;;;;17.95;65.88;93862.84;5011999;28;20125;-69
2022/08/04 02:04:53;;;;;;;8.48;6.32;;;;;;;17.92;66.08;93863.78;5011749;28;20072;-62
2022/08/04 02:07:51;;;;;;;7.63;5.20;;;;;;;17.92;66.11;93865.78;5011901;28;20099;-62
2022/08/04 02:10:34;;;;;;;6.65;4.15;;;;;;;17.84;66.56;93865.34;5009416;28;20810;-65
2022/08/04 02:13:14;;;;;;;5.30;3.70;;;;;;;17.83;66.60;93861.03;5005269;28;20068;-62
2022/08/04 02:16:02;;;;;;;5.13;3.67;;;;;;;17.78;66.74;93861.59;5040628;28;20045;-63
2022/08/04 02:19:26;;;;;;;6.93;3.65;;;;;;;17.73;66.75;93859.47;5011351;28;20120;-66
2022/08/04 02:22:01;;;;;;;6.00;3.83;;;;;;;17.67;66.84;93856.53;4987899;28;20423;-62
2022/08/04 02:24:30;;;;;;;4.90;3.50;;;;;;;17.68;66.84;93854.53;4989295;28;20058;-62
2022/08/04 02:27:00;;;;;;;5.88;3.70;;;;;;;17.65;66.94;93850.69;4991461;28;20377;-66
2022/08/04 02:29:36;;;;;;;5.83;3.87;;;;;;;17.60;67.25;93856.84;5011184;28;20042;-70
2022/08/04 02:32:09;;;;;;;4.43;3.50;;;;;;;17.56;67.23;93856.97;4994107;28;20474;-65
2022/08/04 02:34:54;;;;;;;6.20;3.50;;;;;;;17.53;67.55;93860.69;5011122;28;20066;-63
2022/08/04 02:37:23;;;;;;;6.15;3.60;;;;;;;17.41;67.89;93855.31;5010571;28;20163;-63
2022/08/04 02:39:52;;;;;;;6.25;3.90;;;;;;;17.35;68.39;93844.03;5009954;28;20359;-66
2022/08/04 02:42:20;;;;;;;5.13;3.77;;;;;;;17.32;68.35;93856.03;4998576;28;20084;-65
2022/08/04 02:44:51;;;;;;;6.78;3.80;;;;;;;17.38;68.06;93851.44;5000121;28;20390;-63
2022/08/04 02:47:20;;;;;;;5.50;3.70;;;;;;;17.40;67.76;93848.19;5011142;28;20042;-62
2022/08/04 02:49:50;;;;;;;5.10;3.78;;;;;;;17.38;68.00;93845.88;5010429;28;20779;-63
2022/08/04 02:52:19;;;;;;;8.27;3.83;;;;;;;17.30;68.35;93852.97;5011076;28;20037;-67
2022/08/04 02:54:50;;;;;;;5.20;3.70;;;;;;;17.28;68.25;93845.09;5009061;28;20038;-66
2022/08/04 02:57:18;;;;;;;5.07;3.58;;;;;;;17.23;68.28;93854.03;5011044;28;20048;-65
2022/08/04 02:59:57;;;;;;;5.15;3.72;;;;;;;17.26;67.99;93850.34;5009937;28;20104;-63
2022/08/04 03:02:48;;;;;;;5.38;3.78;;;;;;;17.24;68.36;93847.25;5018815;28;20045;-63
2022/08/04 03:05:24;;;;;;;5.32;3.80;;;;;;;17.23;68.12;93850.50;4994248;28;20381;-63
2022/08/04 03:08:32;;;;;;;5.73;3.93;;;;;;;17.10;68.93;93851.41;4990397;28;20286;-66
2022/08/04 03:11:09;;;;;;;7.53;4.20;;;;;;;16.99;69.31;93842.75;4974805;28;20058;-63
2022/08/04 03:13:58;;;;;;;6.03;3.80;;;;;;;16.97;69.31;93848.00;4978228;28;20399;-63
2022/08/04 03:16:46;;;;;;;5.32;3.70;;;;;;;16.97;69.30;93840.44;4971084;28;20128;-68
2022/08/04 03:19:31;;;;;;;5.78;3.50;;;;;;;16.99;68.89;93842.00;4982202;28;20177;-61
2022/08/04 03:22:27;;;;;;;5.13;3.60;;;;;;;17.03;68.73;93845.38;4985618;28;20039;-60
2022/08/04 03:25:32;;;;;;;6.00;3.50;;;;;;;17.01;68.57;93850.63;4970951;28;20055;-61
2022/08/04 03:28:33;;;;;;;4.95;3.55;;;;;;;17.01;68.47;93850.63;4971011;28;20050;-60
2022/08/04 03:31:18;;;;;;;5.25;3.50;;;;;;;16.96;68.91;93847.22;4971324;28;20038;-64
2022/08/04 03:33:48;;;;;;;5.20;3.67;;;;;;;16.76;69.91;93847.59;4974359;28;20050;-61
2022/08/04 03:36:45;;;;;;;5.03;3.83;;;;;;;16.75;70.07;93856.38;4986179;28;20051;-61
2022/08/04 03:39:52;;;;;;;5.28;3.95;;;;;;;16.77;70.03;93851.91;4970332;28;20047;-66
2022/08/04 03:42:33;;;;;;;5.53;4.07;;;;;;;16.76;70.24;93858.69;4970506;28;20046;-64
2022/08/04 03:45:17;;;;;;;5.65;4.15;;;;;;;16.76;70.16;93858.69;4987565;28;20046;-61
2022/08/04 03:48:18;;;;;;;7.57;5.05;;;;;;;16.77;70.13;93857.44;4990267;28;20458;-61
2022/08/04 03:54:24;;;;;;;5.93;4.00;;;;;;;16.81;69.86;93851.78;4971085;28;20061;-62
2022/08/04 03:57:18;;;;;;;5.07;3.92;;;;;;;16.81;69.76;93862.09;4970207;28;20047;-66
2022/08/04 04:00:03;;;;;;;5.95;3.90;;;;;;;16.80;69.65;93852.97;4983977;28;20047;-65
2022/08/04 04:02:54;;;;;;;5.90;3.90;;;;;;;16.82;69.83;93855.34;4977764;28;20046;-65
2022/08/04 04:06:09;;;;;;;5.53;4.00;;;;;;;16.75;70.25;93853.59;4970182;28;20209;-61
2022/08/04 04:09:08;;;;;;;5.88;4.40;;;;;;;16.72;70.37;93849.75;4980637;28;21553;-60
2022/08/04 04:12:03;;;;;;;5.80;4.20;;;;;;;16.74;70.15;93854.81;4989766;28;20058;-61
2022/08/04 04:15:09;;;;;;;5.00;3.90;;;;;;;16.75;70.04;93848.06;4997395;28;20056;-66
2022/08/04 04:17:54;;;;;;;5.50;3.78;;;;;;;16.78;69.91;93845.16;5005632;28;20042;-65
2022/08/04 04:20:49;;;;;;;5.77;4.13;;;;;;;16.83;69.54;93851.34;5008874;28;20076;-62
2022/08/04 04:23:24;;;;;;;5.78;3.83;;;;;;;16.79;69.63;93845.91;4985425;28;21575;-62
2022/08/04 04:26:02;;;;;;;5.93;4.00;;;;;;;16.83;69.28;93846.56;5007238;28;20441;-61
2022/08/04 04:28:47;;;;;;;5.38;3.95;;;;;;;16.87;68.93;93847.19;5009799;28;20042;-61
2022/08/04 04:31:28;;;;;;;5.68;4.00;;;;;;;16.92;68.86;93854.13;5008720;28;20912;-61
2022/08/04 04:34:17;;;;;;;6.30;4.10;;;;;;;16.73;69.94;93865.13;5014057;28;20316;-64
2022/08/04 04:37:10;;;;;;;6.70;4.13;;;;;;;16.75;69.86;93857.13;5009137;28;20050;-63
2022/08/04 04:40:01;;;;;;;5.80;4.00;;;;;;;16.81;69.58;93862.88;5009650;28;20058;-62
2022/08/04 04:43:08;;;;;;;5.53;3.55;;;;;;;16.93;68.69;93862.00;5008825;28;20107;-62
2022/08/04 04:46:11;;;;;;;7.65;4.70;;;;;;;16.94;69.03;93868.28;5009210;28;20417;-70
2022/08/04 04:48:54;;;;;;;6.77;4.00;;;;;;;16.99;68.72;93864.16;5002948;28;20093;-62
2022/08/04 04:51:36;;;;;;;5.72;3.90;;;;;;;17.08;68.53;93862.19;5009168;28;20102;-64
2022/08/04 04:54:27;;;;;;;4.95;3.63;;;;;;;17.12;68.25;93867.56;5009384;28;20046;-62
2022/08/04 04:57:10;;;;;;;6.35;4.00;;;;;;;17.20;68.15;93873.59;5008521;28;20042;-62
2022/08/04 04:59:41;;;;;;;6.70;4.50;;;;;;;17.19;68.66;93872.06;5009110;28;20060;-65
2022/08/04 05:02:38;;;;;;;5.80;4.40;;;;;;;17.11;68.97;93866.81;5014262;28;20064;-63
2022/08/04 05:05:05;;;;;;;6.47;4.45;;;;;;;17.14;68.92;93874.22;5006044;28;20928;-63
2022/08/04 05:08:05;;;;;;;6.40;4.40;;;;;;;16.92;69.77;93881.84;5008911;28;20037;-62
2022/08/04 05:11:04;;;;;;;6.18;4.28;;;;;;;17.04;69.51;93880.94;4987585;28;20448;-66
2022/08/04 05:13:48;;;;;;;5.82;4.30;;;;;;;17.15;69.34;93877.75;4989442;28;20046;-61
2022/08/04 05:16:45;;;;;;;10.30;4.50;;;;;;;17.24;69.23;93874.22;4995626;28;20431;-62
2022/08/04 05:19:20;;;;;;;8.02;4.72;;;;;;;17.32;68.90;93883.78;4991986;28;20116;-61
2022/08/04 05:21:51;;;;;;;6.68;4.50;;;;;;;17.30;69.43;93877.94;4991946;28;20038;-65
2022/08/04 05:24:21;;;;;;;7.00;4.47;;;;;;;17.22;69.61;93879.47;4991005;28;20049;-62
2022/08/04 05:26:52;;;;;;;6.90;4.90;;;;;;;17.34;69.52;93884.88;4991612;28;20092;-65
2022/08/04 05:29:28;;;;;;;6.17;4.60;;;;;;;17.24;69.98;93879.78;4992507;28;20069;-63
2022/08/04 05:32:03;;;;;;;7.38;4.85;;;;;;;17.35;69.80;93889.19;4990631;28;20042;-66
2022/08/04 05:34:38;;;;;;;7.40;5.18;;;;;;;17.52;69.32;93875.78;4992564;28;20049;-62
2022/08/04 05:37:10;;;;;;;6.95;4.82;;;;;;;17.48;69.52;93886.25;4991868;28;20038;-65
2022/08/04 05:39:57;;;;;;;6.85;4.90;;;;;;;17.56;69.30;93881.94;4992253;28;20049;-62
2022/08/04 05:42:25;;;;;;;8.47;4.93;;;;;;;17.64;69.32;93881.66;4988393;28;20881;-62
2022/08/04 05:44:54;;;;;;;5.97;4.53;;;;;;;17.78;69.21;93884.56;4972452;28;20046;-62
2022/08/04 05:47:21;;;;;;;7.90;5.15;;;;;;;17.87;68.76;93883.84;4982698;28;20043;-62
2022/08/04 05:49:48;;;;;;;7.25;4.80;;;;;;;17.91;68.55;93889.25;4984175;28;20399;-62
2022/08/04 05:52:29;;;;;;;7.07;4.68;;;;;;;18.17;68.06;93876.56;4979210;28;20841;-66
2022/08/04 05:54:59;;;;;;;8.63;4.87;;;;;;;18.41;67.28;93889.00;4991089;28;20038;-67
2022/08/04 05:57:27;;;;;;;5.97;4.22;;;;;;;18.51;67.10;93887.72;4988474;28;20133;-63
2022/08/04 05:59:57;;;;;;;6.30;4.70;;;;;;;19.88;63.13;93882.69;4978511;28;20043;-64
2022/08/04 06:02:26;;;;;;;5.60;4.32;;;;;;;23.28;52.66;93883.78;4986282;28;20047;-64
2022/08/04 06:04:55;;;;;;;8.05;4.70;;;;;;;25.79;46.60;93870.38;4984723;28;20688;-66
2022/08/04 06:07:22;;;;;;;6.70;4.30;;;;;;;27.51;41.82;93871.03;4971784;28;20428;-65
2022/08/04 06:09:49;;;;;;;5.60;4.50;;;;;;;28.04;39.58;93871.47;4988581;28;20043;-68
2022/08/04 06:12:25;;;;;;;11.80;4.15;;;;;;;28.15;39.36;93873.41;4984336;28;20054;-64
2022/08/04 06:14:55;;;;;;;6.75;4.07;;;;;;;28.40;38.46;93865.63;4972194;28;20065;-64
2022/08/04 06:17:31;;;;;;;6.35;4.00;;;;;;;29.27;36.89;93870.97;4973267;28;20054;-63
2022/08/04 06:20:20;;;;;;;6.33;3.93;;;;;;;30.23;35.20;93868.44;4971946;28;20134;-62
2022/08/04 06:22:52;;;;;;;5.68;3.85;;;;;;;30.96;34.21;93871.75;4972265;28;20043;-63
2022/08/04 06:25:23;;;;;;;5.35;3.50;;;;;;;32.34;31.92;93872.00;4986351;28;20038;-68
2022/08/04 06:27:51;;;;;;;5.70;3.70;;;;;;;32.82;30.84;93867.47;4983852;28;20055;-63
2022/08/04 06:30:19;;;;;;;6.28;4.03;;;;;;;32.53;30.93;93872.44;4973221;28;20050;-66
2022/08/04 06:32:54;;;;;;;5.33;3.67;;;;;;;32.83;30.97;93876.72;4971929;28;20065;-63
2022/08/04 06:35:30;;;;;;;7.40;3.80;;;;;;;33.03;30.11;93872.22;4988322;28;20054;-64
2022/08/04 06:37:58;;;;;;;4.40;3.70;;;;;;;34.64;27.90;93870.56;4979538;28;20415;-63
2022/08/04 06:40:28;;;;;;;6.03;3.63;;;;;;;35.30;26.85;93865.66;4977459;28;20047;-63
2022/08/04 06:43:06;;;;;;;6.00;3.42;;;;;;;35.07;27.48;93871.47;4971622;28;20058;-63
2022/08/04 06:45:37;;;;;;;5.00;3.30;;;;;;;35.38;26.77;93861.38;4984731;28;20042;-64
2022/08/04 06:48:05;;;;;;;4.70;3.30;;;;;;;35.27;27.15;93861.09;4971998;28;20539;-63
2022/08/04 06:50:36;;;;;;;6.47;3.40;;;;;;;35.75;26.29;93864.53;4972256;28;20046;-63
2022/08/04 06:53:24;;;;;;;5.18;3.40;;;;;;;37.33;24.54;93865.91;4990667;28;20542;-63
2022/08/04 06:55:52;;;;;;;6.47;3.80;;;;;;;37.59;23.85;93869.38;4990506;28;20411;-63
2022/08/04 06:58:21;;;;;;;4.87;3.40;;;;;;;37.21;24.41;93869.91;4990185;28;20038;-63
2022/08/04 07:00:49;;;;;;;8.43;3.90;;;;;;;37.06;24.26;93868.75;4990611;28;20046;-64
2022/08/04 07:03:17;;;;;;;7.03;3.63;;;;;;;37.48;24.37;93867.78;4996472;28;20046;-63
2022/08/04 07:05:46;;;;;;;5.40;3.33;;;;;;;36.79;24.33;93860.19;4990639;28;20171;-63
2022/08/04 07:08:14;;;;;;;5.82;3.60;;;;;;;37.67;23.98;93861.41;4991220;28;20372;-64
2022/08/04 07:10:41;;;;;;;4.70;3.60;;;;;;;38.59;22.66;93855.34;4990966;28;20057;-63
2022/08/04 07:13:09;;;;;;;6.70;3.47;;;;;;;37.68;23.91;93865.75;4989770;28;20054;-65
2022/08/04 07:15:40;;;;;;;5.82;3.40;;;;;;;37.85;23.40;93855.53;4991226;28;20046;-66
2022/08/04 07:18:06;;;;;;;6.68;3.50;;;;;;;37.15;24.10;93865.22;4990022;28;20066;-63
2022/08/04 07:20:33;;;;;;;5.65;3.70;;;;;;;36.53;25.41;93862.38;4990863;28;20112;-64
2022/08/04 07:23:04;;;;;;;5.13;3.50;;;;;;;39.11;22.78;93860.56;4990423;28;20455;-66
2022/08/04 07:25:34;;;;;;;4.85;3.00;;;;;;;39.78;21.45;93850.16;4991178;28;20159;-64
2022/08/04 07:28:31;;;;;;;5.25;3.45;;;;;;;39.97;20.89;93855.09;4982568;28;21511;-64
2022/08/04 07:30:58;;;;;;;4.20;3.22;;;;;;;40.06;21.18;93857.13;4971217;28;20057;-64
2022/08/04 07:33:25;;;;;;;5.38;3.03;;;;;;;40.58;21.04;93851.94;4972320;28;20054;-65
2022/08/04 07:35:55;;;;;;;4.10;3.00;;;;;;;40.48;20.89;93847.00;4973064;28;20050;-64
2022/08/04 07:38:40;;;;;;;5.10;3.20;;;;;;;41.85;20.11;93854.94;4970579;28;20069;-64
2022/08/04 07:41:22;;;;;;;4.55;3.05;;;;;;;42.48;19.40;93848.59;4969485;28;20685;-65
2022/08/04 07:44:06;;;;;;;4.55;3.15;;;;;;;43.03;18.08;93845.25;4970231;28;20604;-64
2022/08/04 07:46:33;;;;;;;5.55;3.60;;;;;;;41.88;18.96;93842.19;4970985;28;20069;-67
2022/08/04 07:49:01;;;;;;;6.17;3.00;;;;;;;41.00;20.46;93847.47;4970823;28;20372;-66
2022/08/04 07:51:29;;;;;;;4.32;3.10;;;;;;;40.84;20.14;93839.28;4971409;28;20046;-64
2022/08/04 07:53:57;;;;;;;4.75;3.00;;;;;;;39.64;20.82;93840.56;4970714;28;20061;-63
2022/08/04 07:56:25;;;;;;;3.42;2.95;;;;;;;39.31;21.34;93838.28;4971306;28;20049;-65
2022/08/04 07:58:53;;;;;;;5.07;3.10;;;;;;;38.75;21.49;93840.06;4970694;28;20042;-67
2022/08/04 08:01:20;;;;;;;9.40;3.50;;;;;;;39.65;20.49;93837.09;4978740;28;20042;-65
2022/08/04 08:03:48;;;;;;;4.90;3.17;;;;;;;40.14;20.34;93843.31;4988411;28;20387;-66
2022/08/04 08:06:15;;;;;;;7.20;3.47;;;;;;;39.41;20.95;93835.38;4987698;28;20488;-64
2022/08/04 08:09:00;;;;;;;4.57;3.03;;;;;;;39.02;21.47;93835.50;4990490;28;20178;-64
2022/08/04 08:11:46;;;;;;;5.70;3.45;;;;;;;38.02;22.39;93829.66;4982276;28;20046;-62
2022/08/04 08:14:34;;;;;;;5.33;3.07;;;;;;;38.14;22.24;93836.31;4973484;28;20469;-64
2022/08/04 08:17:02;;;;;;;4.80;3.33;;;;;;;39.25;20.92;93823.50;4970297;28;20333;-66
2022/08/04 08:19:33;;;;;;;6.50;3.35;;;;;;;38.27;22.13;93828.63;4972209;28;20397;-67
2022/08/04 08:22:01;;;;;;;6.45;3.65;;;;;;;37.91;22.40;93824.50;4981597;28;20046;-64
2022/08/04 08:24:29;;;;;;;6.40;3.50;;;;;;;38.71;21.71;93831.16;4970846;28;20043;-64
2022/08/04 08:26:57;;;;;;;4.63;3.37;;;;;;;39.69;20.72;93823.00;4969894;28;20053;-64
2022/08/04 08:29:25;;;;;;;5.35;3.30;;;;;;;39.55;20.75;93828.53;4970684;28;20420;-64
2022/08/04 08:31:53;;;;;;;3.95;3.38;;;;;;;40.34;19.99;93828.81;4969924;28;20439;-65
2022/08/04 08:34:28;;;;;;;5.35;3.50;;;;;;;38.87;21.07;93830.84;4979245;28;20050;-66
2022/08/04 08:37:12;;;;;;;5.03;3.40;;;;;;;39.49;20.91;93830.22;4989703;28;20034;-64
2022/08/04 08:39:53;;;;;;;4.83;3.23;;;;;;;39.53;21.04;93830.50;4977609;28;20050;-62
2022/08/04 08:42:30;;;;;;;4.43;3.33;;;;;;;38.89;21.69;93825.25;4970920;28;20508;-64
2022/08/04 08:45:12;;;;;;;4.93;3.22;;;;;;;38.61;21.55;93838.28;4970222;28;20061;-64
2022/08/04 08:47:50;;;;;;;5.18;3.33;;;;;;;37.61;22.70;93829.44;4970615;28;20427;-64
2022/08/04 08:51:01;;;;;;;7.45;3.50;;;;;;;38.62;22.35;93825.47;4973508;28;20108;-64
2022/08/04 08:53:46;;;;;;;5.10;3.20;;;;;;;39.18;21.51;93830.94;4959359;28;20387;-66
2022/08/04 08:56:25;;;;;;;4.50;3.35;;;;;;;39.50;21.53;93825.97;4987416;28;20670;-64
2022/08/04 08:59:22;;;;;;;4.13;3.30;;;;;;;38.69;21.63;93828.16;5003707;28;20419;-64
2022/08/04 09:02:26;;;;;;;5.35;3.20;;;;;;;38.78;21.72;93829.50;5016102;28;20494;-64
2022/08/04 09:05:07;;;;;;;4.78;3.40;;;;;;;39.30;20.78;93831.03;5011270;28;20042;-67
2022/08/04 09:07:39;;;;;;;6.63;3.30;;;;;;;39.22;21.02;93830.44;5013748;28;20479;-67
2022/08/04 09:10:21;;;;;;;4.18;3.30;;;;;;;40.57;19.98;93822.41;5012114;28;20417;-63
2022/08/04 09:13:15;;;;;;;5.72;3.30;;;;;;;39.60;20.68;93825.94;5012592;28;20037;-67
2022/08/04 09:16:10;;;;;;;5.28;3.15;;;;;;;38.81;21.11;93821.81;5012864;28;20058;-63
2022/08/04 09:18:53;;;;;;;4.65;3.20;;;;;;;38.72;21.68;93811.88;5013144;28;20398;-64
2022/08/04 09:21:36;;;;;;;5.37;3.30;;;;;;;39.86;20.16;93815.50;5012281;28;20046;-64
2022/08/04 09:24:14;;;;;;;5.38;3.25;;;;;;;40.95;19.12;93814.78;5012482;28;20399;-64
2022/08/04 09:27:08;;;;;;;4.28;3.00;;;;;;;43.21;16.80;93817.38;4997524;28;20406;-64
2022/08/04 09:29:42;;;;;;;4.88;3.03;;;;;;;41.86;17.95;93815.38;5012474;28;20046;-64
2022/08/04 09:32:36;;;;;;;6.22;3.28;;;;;;;41.55;18.77;93812.72;5011653;28;20123;-64
2022/08/04 09:35:18;;;;;;;5.20;3.00;;;;;;;40.08;19.52;93817.03;5012457;28;20060;-67
2022/08/04 09:38:07;;;;;;;4.93;2.78;;;;;;;41.47;17.83;93821.63;5012236;28;20108;-66
2022/08/04 09:41:11;;;;;;;4.57;2.90;;;;;;;41.38;17.41;93823.25;5012744;28;20057;-64
2022/08/04 09:44:20;;;;;;;4.60;2.80;;;;;;;40.99;18.04;93814.28;5010883;28;20497;-63
2022/08/04 09:47:47;;;;;;;5.13;2.90;;;;;;;40.06;18.49;93813.28;5010399;28;20491;-64
2022/08/04 09:50:44;;;;;;;4.30;3.00;;;;;;;40.02;19.17;93810.88;5011455;28;20789;-63
2022/08/04 09:53:49;;;;;;;3.72;2.97;;;;;;;40.12;18.84;93813.69;5011446;28;20079;-63
2022/08/04 09:56:40;;;;;;;5.22;2.83;;;;;;;41.13;17.32;93807.31;5011153;28;20962;-67
2022/08/04 09:59:25;;;;;;;4.45;2.85;;;;;;;39.51;19.96;93805.28;5011451;28;20129;-64
2022/08/04 10:01:57;;;;;;;5.32;3.03;;;;;;;40.44;19.08;93800.72;5014185;28;20163;-63
2022/08/04 10:04:29;;;;;;;3.40;2.83;;;;;;;40.12;19.61;93802.19;5011272;28;20049;-65
2022/08/04 10:07:22;;;;;;;4.20;2.90;;;;;;;39.31;19.56;93793.09;5012094;28;20049;-63
2022/08/04 10:10:12;;;;;;;4.97;3.00;;;;;;;38.40;20.55;93790.16;4982173;28;20050;-63
2022/08/04 10:12:54;;;;;;;5.55;3.20;;;;;;;39.29;19.96;93797.94;5011040;28;20040;-61
2022/08/04 10:15:47;;;;;;;5.30;3.00;;;;;;;39.92;18.79;93784.31;5011993;28;20065;-64
2022/08/04 10:18:41;;;;;;;6.13;2.97;;;;;;;39.90;19.26;93782.06;5010478;28;20722;-64
2022/08/04 10:21:25;;;;;;;4.25;2.60;;;;;;;41.94;16.91;93777.63;5010774;28;20075;-63
2022/08/04 10:24:19;;;;;;;5.55;2.80;;;;;;;41.27;17.43;93775.03;5011173;28;20356;-64
2022/08/04 10:26:55;;;;;;;4.78;2.72;;;;;;;40.09;18.71;93769.69;5011229;28;20034;-65
2022/08/04 10:29:30;;;;;;;4.57;2.67;;;;;;;40.10;18.46;93765.41;5011766;28;20056;-63
2022/08/04 10:32:26;;;;;;;4.27;2.43;;;;;;;40.48;18.48;93766.47;5010828;28;20046;-66
2022/08/04 10:35:14;;;;;;;4.95;2.50;;;;;;;39.93;17.65;93768.59;5019599;28;20525;-63
2022/08/04 10:38:09;;;;;;;3.95;2.70;;;;;;;39.20;19.11;93775.78;5002613;28;20069;-63
2022/08/04 10:40:57;;;;;;;3.50;2.50;;;;;;;39.97;17.63;93765.25;4999148;28;20046;-63
2022/08/04 10:43:38;;;;;;;4.25;2.80;;;;;;;40.03;17.83;93782.91;5027918;28;20121;-66
2022/08/04 10:46:20;;;;;;;3.40;2.70;;;;;;;39.81;18.36;93768.50;5010313;28;20811;-66
2022/08/04 10:48:59;;;;;;;4.30;2.30;;;;;;;40.44;15.14;93771.22;5010953;28;20402;-65
2022/08/04 10:51:29;;;;;;;3.10;2.03;;;;;;;41.80;14.21;93769.66;5011266;28;20046;-65
2022/08/04 10:54:44;;;;;;;3.90;2.20;;;;;;;41.72;15.38;93772.78;5010138;28;21470;-66
2022/08/04 10:57:18;;;;;;;4.13;2.30;;;;;;;40.16;17.17;93767.22;5010242;28;22075;-63
2022/08/04 10:59:58;;;;;;;4.77;2.07;;;;;;;39.96;15.46;93755.84;5010564;28;20048;-63
2022/08/04 11:02:48;;;;;;;4.35;2.30;;;;;;;39.71;15.91;93765.69;5013798;28;20045;-63
2022/08/04 11:05:40;;;;;;;4.68;2.22;;;;;;;39.65;15.92;93755.91;5010470;28;20776;-65
2022/08/04 11:08:35;;;;;;;4.82;2.88;;;;;;;37.55;20.43;93771.66;5007117;28;20492;-68
2022/08/04 11:11:15;;;;;;;4.55;3.00;;;;;;;36.70;21.52;93767.25;5010260;28;20046;-65
2022/08/04 11:13:53;;;;;;;4.70;2.90;;;;;;;35.33;22.68;93758.91;5010459;28;20380;-63
2022/08/04 11:16:31;;;;;;;4.07;2.90;;;;;;;35.25;22.56;93761.06;4996881;28;20398;-64
2022/08/04 11:19:07;;;;;;;3.80;2.70;;;;;;;35.45;21.55;93765.63;5010212;28;20054;-72
2022/08/04 11:21:42;;;;;;;3.67;2.88;;;;;;;35.82;22.43;93759.38;5010899;28;20038;-65
2022/08/04 11:24:25;;;;;;;4.97;3.03;;;;;;;35.94;21.79;93763.25;5009646;28;20052;-65
2022/08/04 11:26:59;;;;;;;4.13;3.00;;;;;;;36.25;21.96;93768.63;5010109;28;20121;-65
2022/08/04 11:29:37;;;;;;;4.72;2.95;;;;;;;36.59;20.34;93764.94;5010389;28;20079;-65
2022/08/04 11:32:16;;;;;;;3.80;2.70;;;;;;;36.72;19.49;93758.84;5009908;28;20121;-65
2022/08/04 11:34:48;;;;;;;3.85;2.85;;;;;;;37.06;19.42;93756.44;5020323;28;20045;-64
2022/08/04 11:37:25;;;;;;;4.85;2.67;;;;;;;37.28;19.09;93752.47;5010743;28;20045;-65
2022/08/04 11:39:59;;;;;;;4.73;2.87;;;;;;;37.31;19.97;93748.41;5010154;28;20083;-68
2022/08/04 11:42:32;;;;;;;4.05;3.03;;;;;;;37.18;20.29;93754.53;5010829;28;20058;-65
2022/08/04 11:45:10;;;;;;;4.35;3.10;;;;;;;35.99;21.85;93756.53;5010093;28;20050;-66
2022/08/04 11:48:04;;;;;;;5.80;3.00;;;;;;;35.69;21.13;93758.38;5010595;28;20454;-66
2022/08/04 11:50:34;;;;;;;5.00;3.10;;;;;;;35.35;21.52;93756.22;4989913;28;20719;-64
2022/08/04 11:53:02;;;;;;;4.57;2.80;;;;;;;35.57;21.22;93765.91;4990384;28;20046;-70
2022/08/04 11:55:31;;;;;;;5.70;2.85;;;;;;;35.14;21.46;93762.28;4990731;28;20411;-66
2022/08/04 11:58:20;;;;;;;5.70;2.90;;;;;;;35.56;20.87;93750.13;4976547;28;20046;-66
2022/08/04 12:01:31;;;;;;;4.55;2.80;;;;;;;35.87;20.87;93755.53;4970760;28;20039;-64
2022/08/04 12:04:10;;;;;;;3.97;2.83;;;;;;;33.42;23.30;93765.72;4973569;28;20039;-64
2022/08/04 12:06:42;;;;;;;4.80;3.00;;;;;;;33.68;23.28;93754.47;4975590;28;20046;-64
2022/08/04 12:10:04;;;;;;;4.65;2.80;;;;;;;35.10;21.26;93754.13;4976846;28;20679;-67
2022/08/04 12:12:57;;;;;;;3.97;3.08;;;;;;;36.14;20.27;93755.56;4948526;28;20822;-64
2022/08/04 12:15:35;;;;;;;3.75;2.50;;;;;;;35.76;20.24;93756.81;4970129;28;21554;-63
2022/08/04 12:18:18;;;;;;;3.65;2.28;;;;;;;36.35;18.79;93761.63;4970391;28;20042;-69
2022/08/04 12:20:49;;;;;;;3.30;2.20;;;;;;;36.69;17.45;93757.19;4984225;28;20044;-63
2022/08/04 12:23:23;;;;;;;3.50;2.50;;;;;;;36.10;18.48;93752.38;4971067;28;20053;-63
2022/08/04 12:25:54;;;;;;;3.97;2.00;;;;;;;36.50;17.94;93757.03;4973784;28;20492;-66
2022/08/04 12:28:28;;;;;;;3.50;1.90;;;;;;;36.57;16.80;93756.94;4974320;28;20042;-65
2022/08/04 12:31:35;;;;;;;3.40;1.77;;;;;;;37.10;16.51;93748.16;4993138;28;20584;-65
2022/08/04 12:34:16;;;;;;;2.70;1.70;;;;;;;35.59;16.95;93735.41;4988422;28;20069;-63
2022/08/04 12:36:57;;;;;;;4.45;1.80;;;;;;;35.66;17.32;93733.88;4993833;28;20398;-63
2022/08/04 12:39:26;;;;;;;3.13;1.90;;;;;;;35.56;16.83;93733.75;4980886;28;20057;-63